Time;durP1;ratioP1;P1;durP2;ratioP2;P2;SDS_P1;SDS_P2;PMS_P1;PMS_P2;Temp;Humidity;BMP_temperature;BMP_pressure;BME280_temperature;BME280_humidity;BME280_pressure;Samples;Min_cycle;Max_cycle;Signal;HPM_P1;HPM_P2
2022/01/27 00:01:07;;;;;;;152.90;41.10;;;;;;;3.26;100.00;102547.16;4990319;28;20034;-80
2022/01/27 00:03:49;;;;;;;148.80;37.95;;;;;;;3.19;100.00;102534.69;4991829;28;20041;-78
2022/01/27 00:06:16;;;;;;;131.93;34.80;;;;;;;3.24;100.00;102527.34;4993870;28;20031;-78
2022/01/27 00:08:52;;;;;;;129.95;35.13;;;;;;;3.20;100.00;102522.91;4991098;28;20075;-78
2022/01/27 00:11:17;;;;;;;131.85;39.22;;;;;;;3.22;100.00;102512.97;4988333;28;20065;-79
2022/01/27 00:13:58;;;;;;;130.80;33.90;;;;;;;3.23;100.00;102507.53;4989538;28;20085;-79
2022/01/27 00:16:39;;;;;;;139.07;34.45;;;;;;;3.15;100.00;102501.38;5015138;28;20498;-78
2022/01/27 00:19:05;;;;;;;142.27;37.50;;;;;;;3.18;100.00;102500.41;5015352;28;20035;-79
2022/01/27 00:21:31;;;;;;;149.48;38.38;;;;;;;3.19;100.00;102500.38;4991607;28;20031;-79
2022/01/27 00:23:57;;;;;;;131.00;33.20;;;;;;;3.18;100.00;102504.03;5015598;28;20061;-79
2022/01/27 00:26:23;;;;;;;138.25;36.08;;;;;;;3.21;100.00;102484.13;4973224;28;20042;-79
2022/01/27 00:28:50;;;;;;;145.75;37.33;;;;;;;3.21;100.00;102471.47;4977383;28;20053;-79
2022/01/27 00:31:17;;;;;;;147.57;38.97;;;;;;;3.19;100.00;102470.63;4987348;28;20513;-79
2022/01/27 00:33:44;;;;;;;141.48;36.35;;;;;;;3.17;100.00;102450.81;5006508;28;20026;-79
2022/01/27 00:36:10;;;;;;;146.27;38.38;;;;;;;3.22;100.00;102440.78;4998903;28;20459;-80
2022/01/27 00:38:36;;;;;;;140.95;36.47;;;;;;;3.17;100.00;102447.22;5019976;28;20375;-79
2022/01/27 00:41:02;;;;;;;143.68;38.22;;;;;;;3.17;100.00;102447.22;5018038;28;20038;-80
2022/01/27 00:43:27;;;;;;;134.55;35.15;;;;;;;3.13;100.00;102447.28;5012952;28;20101;-79
2022/01/27 00:45:52;;;;;;;142.25;37.38;;;;;;;3.18;100.00;102449.00;4986391;28;20030;-79
2022/01/27 00:48:18;;;;;;;122.43;32.58;;;;;;;3.28;100.00;102453.25;5001103;28;20498;-80
2022/01/27 00:50:54;;;;;;;151.90;37.53;;;;;;;3.24;100.00;102465.97;5002125;28;20040;-79
2022/01/27 00:53:35;;;;;;;120.18;33.05;;;;;;;3.29;100.00;102465.88;5004283;28;20079;-79
2022/01/27 00:56:13;;;;;;;128.48;33.42;;;;;;;3.23;100.00;102456.09;4990067;28;20634;-79
2022/01/27 01:01:30;;;;;;;127.53;36.42;;;;;;;3.23;100.00;102445.28;4984919;28;20054;-79
2022/01/27 01:04:00;;;;;;;126.78;32.30;;;;;;;3.25;100.00;102443.41;4987007;28;20157;-79
2022/01/27 01:06:40;;;;;;;134.68;34.40;;;;;;;3.22;100.00;102442.59;4992972;28;20070;-78
2022/01/27 01:12:41;;;;;;;159.02;39.55;;;;;;;3.16;100.00;102443.63;5002562;28;20487;-79
2022/01/27 01:14:38;;;;;;;140.05;39.42;;;;;;;3.18;100.00;102444.50;4995650;28;20376;-79
2022/01/27 01:32:48;;;;;;;146.98;36.88;;;;;;;3.21;100.00;102414.63;4983997;28;20037;-79
2022/01/27 01:35:14;;;;;;;146.07;37.33;;;;;;;3.15;100.00;102397.63;4998667;28;20098;-78
2022/01/27 01:37:42;;;;;;;163.68;38.75;;;;;;;3.15;100.00;102398.56;4999278;28;20120;-79
2022/01/27 01:40:11;;;;;;;134.52;37.03;;;;;;;3.16;100.00;102388.59;5001676;28;20026;-79
2022/01/27 01:42:36;;;;;;;155.57;36.65;;;;;;;3.23;100.00;102401.97;4985242;28;20038;-78
2022/01/27 01:45:08;;;;;;;145.80;37.33;;;;;;;3.21;100.00;102387.56;5003851;28;20054;-79
2022/01/27 01:47:34;;;;;;;139.52;35.50;;;;;;;3.22;100.00;102373.13;5005664;28;20042;-78
2022/01/27 01:50:00;;;;;;;138.75;36.30;;;;;;;3.18;100.00;102381.34;4984588;28;20074;-79
2022/01/27 01:52:25;;;;;;;152.65;37.53;;;;;;;3.22;100.00;102380.34;4999744;28;20072;-79
2022/01/27 01:54:53;;;;;;;146.32;37.35;;;;;;;3.17;100.00;102380.47;5020442;28;20053;-79
2022/01/27 01:57:19;;;;;;;120.25;34.95;;;;;;;3.24;100.00;102376.66;4988710;28;20061;-79
2022/01/27 01:59:44;;;;;;;137.10;36.35;;;;;;;3.18;100.00;102365.09;4987262;28;20034;-79
2022/01/27 02:02:12;;;;;;;149.63;35.72;;;;;;;3.22;100.00;102369.53;5005109;28;20041;-81
2022/01/27 02:04:39;;;;;;;132.20;32.97;;;;;;;3.25;100.00;102358.63;4993345;28;20038;-80
2022/01/27 02:07:11;;;;;;;145.18;34.38;;;;;;;3.29;100.00;102365.72;4994173;28;20039;-80
2022/01/27 02:17:59;;;;;;;153.88;38.70;;;;;;;3.26;100.00;102368.50;4993846;28;20689;-79
2022/01/27 02:20:25;;;;;;;128.65;33.22;;;;;;;3.29;100.00;102368.44;4993401;28;20053;-80
2022/01/27 02:22:50;;;;;;;134.30;33.70;;;;;;;3.11;100.00;102337.28;5010394;28;20018;-80
2022/01/27 02:25:17;;;;;;;141.43;37.35;;;;;;;3.26;100.00;102353.19;4991315;28;20030;-79
2022/01/27 02:27:43;;;;;;;123.57;32.22;;;;;;;3.30;100.00;102341.34;4992485;28;20027;-79
2022/01/27 02:30:09;;;;;;;120.90;32.00;;;;;;;3.27;100.00;102327.88;5014129;28;20109;-78
2022/01/27 02:32:34;;;;;;;145.68;37.95;;;;;;;3.26;100.00;102331.53;5015563;28;20134;-79
2022/01/27 02:35:01;;;;;;;132.48;34.42;;;;;;;3.28;100.00;102331.47;5000326;28;20089;-79
2022/01/27 02:37:26;;;;;;;153.02;37.00;;;;;;;3.26;100.00;102327.91;5027078;28;20034;-80
2022/01/27 02:39:51;;;;;;;134.88;34.47;;;;;;;3.31;100.00;102331.38;5001076;28;20053;-79
2022/01/27 02:42:32;;;;;;;130.25;33.13;;;;;;;3.29;100.00;102336.84;5007632;28;20070;-80
2022/01/27 02:45:12;;;;;;;152.30;37.53;;;;;;;3.33;100.00;102336.75;4977453;28;20054;-78
2022/01/27 02:47:38;;;;;;;136.75;34.88;;;;;;;3.30;100.00;102330.50;4997116;28;20114;-80
2022/01/27 02:50:05;;;;;;;138.25;35.15;;;;;;;3.33;100.00;102344.88;4994435;28;20042;-79
2022/01/27 02:52:32;;;;;;;137.02;35.58;;;;;;;3.31;100.00;102332.31;5002267;28;20026;-79
2022/01/27 02:54:58;;;;;;;140.20;33.40;;;;;;;3.30;100.00;102322.38;5023925;28;20080;-79
2022/01/27 02:57:24;;;;;;;127.13;34.53;;;;;;;3.35;100.00;102316.88;4996622;28;20042;-79
2022/01/27 02:59:51;;;;;;;122.85;33.22;;;;;;;3.31;100.00;102313.34;5016059;28;20038;-79
2022/01/27 03:02:18;;;;;;;151.82;36.90;;;;;;;3.37;100.00;102316.81;4991426;28;20041;-79
2022/01/27 03:04:43;;;;;;;139.38;34.00;;;;;;;3.34;100.00;102312.38;4989313;28;20039;-79
2022/01/27 03:07:09;;;;;;;131.48;33.40;;;;;;;3.36;100.00;102309.63;5016893;28;20494;-78
2022/01/27 03:09:35;;;;;;;128.57;34.92;;;;;;;3.36;100.00;102306.91;5016807;28;20030;-79
2022/01/27 03:12:08;;;;;;;137.57;35.30;;;;;;;3.38;100.00;102307.75;4985100;28;20122;-79
2022/01/27 03:14:35;;;;;;;118.20;31.85;;;;;;;3.39;100.00;102288.78;4977176;28;20725;-79
2022/01/27 03:17:01;;;;;;;124.93;34.33;;;;;;;3.40;100.00;102286.97;4987551;28;20086;-79
2022/01/27 03:19:27;;;;;;;102.60;28.35;;;;;;;3.39;100.00;102274.34;4992877;28;20199;-80
2022/01/27 03:21:54;;;;;;;127.53;35.00;;;;;;;3.41;100.00;102280.59;5000867;28;20038;-79
2022/01/27 03:24:21;;;;;;;113.38;30.20;;;;;;;3.42;100.00;102269.75;5007797;28;20029;-79
2022/01/27 03:26:47;;;;;;;112.72;32.45;;;;;;;3.37;100.00;102263.56;5020257;28;20229;-79
2022/01/27 03:29:13;;;;;;;127.22;35.65;;;;;;;3.52;100.00;102283.94;5002997;28;20062;-78
2022/01/27 03:31:38;;;;;;;121.05;31.60;;;;;;;3.48;100.00;102263.28;5001766;28;20073;-79
2022/01/27 03:34:04;;;;;;;129.20;32.63;;;;;;;3.47;100.00;102247.97;4999932;28;20050;-78
2022/01/27 03:36:29;;;;;;;117.55;32.75;;;;;;;3.42;100.00;102248.09;5007772;28;20061;-79
2022/01/27 03:38:55;;;;;;;140.00;34.55;;;;;;;3.46;100.00;102257.00;4989213;28;20031;-78
2022/01/27 03:41:22;;;;;;;120.20;31.08;;;;;;;3.50;100.00;102254.19;5017794;28;20505;-79
2022/01/27 03:43:49;;;;;;;141.73;34.40;;;;;;;3.57;100.00;102249.47;4996315;28;20128;-80
2022/01/27 03:46:15;;;;;;;113.25;30.27;;;;;;;3.59;100.00;102254.88;5014377;28;20031;-79
2022/01/27 03:48:41;;;;;;;124.85;30.77;;;;;;;3.54;100.00;102244.16;4990072;28;20125;-80
2022/01/27 03:51:07;;;;;;;123.28;33.05;;;;;;;3.59;100.00;102252.16;5003980;28;20037;-80
2022/01/27 03:53:32;;;;;;;136.07;33.85;;;;;;;3.57;100.00;102252.19;4998848;28;20034;-80
2022/01/27 03:55:58;;;;;;;124.10;31.83;;;;;;;3.69;100.00;102256.41;4989748;28;20041;-79
2022/01/27 03:58:24;;;;;;;103.57;29.80;;;;;;;3.64;100.00;102252.91;5019155;28;20035;-79
2022/01/27 04:00:50;;;;;;;120.00;32.22;;;;;;;3.67;100.00;102247.41;5020509;28;20161;-79
2022/01/27 04:03:17;;;;;;;122.53;30.83;;;;;;;3.72;100.00;102269.84;5017597;28;20080;-79
2022/01/27 04:05:54;;;;;;;107.10;29.85;;;;;;;3.74;100.00;102259.88;5028331;28;20034;-79
2022/01/27 04:08:20;;;;;;;130.23;31.02;;;;;;;3.74;100.00;102262.59;4995258;28;20101;-79
2022/01/27 04:10:47;;;;;;;102.85;27.98;;;;;;;3.73;100.00;102249.97;4987509;28;20662;-80
2022/01/27 04:13:13;;;;;;;106.70;27.25;;;;;;;3.81;100.00;102256.03;5003306;28;20439;-79
2022/01/27 04:15:42;;;;;;;109.93;30.40;;;;;;;3.82;100.00;102252.41;5017656;28;20034;-81
2022/01/27 04:18:12;;;;;;;121.18;30.63;;;;;;;3.83;100.00;102240.63;4990146;28;20027;-78
2022/01/27 04:20:38;;;;;;;104.97;28.75;;;;;;;3.74;100.00;102221.03;4989643;28;20038;-80
2022/01/27 04:23:04;;;;;;;110.38;27.30;;;;;;;3.82;100.00;102216.28;4976972;28;20025;-79
2022/01/27 04:25:29;;;;;;;117.25;29.77;;;;;;;3.79;100.00;102208.28;5005056;28;20078;-79
2022/01/27 04:27:59;;;;;;;128.05;30.67;;;;;;;3.76;100.00;102192.13;4997411;28;20026;-79
2022/01/27 04:30:26;;;;;;;115.88;30.23;;;;;;;3.81;100.00;102219.94;4995539;28;20678;-79
2022/01/27 04:32:58;;;;;;;122.32;30.00;;;;;;;3.84;100.00;102201.78;4975498;28;20397;-79
2022/01/27 04:35:27;;;;;;;111.07;30.33;;;;;;;3.84;100.00;102209.91;4992695;28;20027;-79
2022/01/27 04:48:25;;;;;;;118.55;28.88;;;;;;;3.95;100.00;102179.81;5013197;28;20035;-80
2022/01/27 04:50:52;;;;;;;117.20;29.02;;;;;;;3.96;100.00;102173.44;4990318;28;20375;-79
2022/01/27 04:53:29;;;;;;;103.13;27.23;;;;;;;3.96;100.00;102167.13;4992968;28;20105;-80
2022/01/27 04:55:56;;;;;;;116.80;27.33;;;;;;;3.95;100.00;102177.09;5005958;28;20037;-80
2022/01/27 04:58:29;;;;;;;93.70;25.45;;;;;;;3.99;100.00;102165.22;4989909;28;20076;-80
2022/01/27 05:00:57;;;;;;;112.63;28.48;;;;;;;3.93;100.00;102161.81;5010401;28;20130;-79
2022/01/27 05:03:34;;;;;;;109.13;25.23;;;;;;;4.03;100.00;102175.03;4992766;28;20038;-79
2022/01/27 05:05:59;;;;;;;109.38;28.30;;;;;;;3.93;100.00;102161.81;4990345;28;20398;-78
2022/01/27 05:08:25;;;;;;;110.95;27.65;;;;;;;3.89;100.00;102157.41;4989951;28;20042;-78
2022/01/27 05:11:05;;;;;;;118.97;28.08;;;;;;;3.89;100.00;102151.97;5004996;28;20034;-79
2022/01/27 05:13:39;;;;;;;116.32;28.20;;;;;;;3.90;100.00;102154.63;4992767;28;20429;-77
2022/01/27 05:16:05;;;;;;;106.57;26.83;;;;;;;3.82;100.00;102141.34;5006552;28;20489;-78
2022/01/27 05:18:30;;;;;;;110.00;26.33;;;;;;;4.03;100.00;102141.59;4994964;28;20062;-78
2022/01/27 05:20:56;;;;;;;108.30;28.17;;;;;;;3.92;100.00;102141.97;4986102;28;20984;-78
2022/01/27 05:23:21;;;;;;;106.05;27.13;;;;;;;3.93;100.00;102142.84;4995965;28;20101;-78
2022/01/27 05:25:47;;;;;;;99.20;27.30;;;;;;;3.92;100.00;102128.41;5011447;28;20038;-79
2022/01/27 05:28:12;;;;;;;83.57;23.33;;;;;;;3.91;100.00;102123.91;5016288;28;20049;-79
2022/01/27 05:30:39;;;;;;;102.00;27.50;;;;;;;3.98;100.00;102132.75;5012303;28;20126;-80
2022/01/27 05:33:05;;;;;;;113.22;26.65;;;;;;;4.03;100.00;102142.53;5008641;28;21645;-78
2022/01/27 05:35:31;;;;;;;106.43;27.77;;;;;;;4.02;100.00;102127.19;4989916;28;20066;-78
2022/01/27 05:37:56;;;;;;;106.50;26.10;;;;;;;4.04;100.00;102124.44;5010126;28;20046;-79
2022/01/27 05:40:22;;;;;;;113.60;27.25;;;;;;;4.12;100.00;102124.19;4987943;28;20466;-81
2022/01/27 05:42:47;;;;;;;94.55;25.65;;;;;;;4.20;100.00;102125.72;5000277;28;20031;-79
2022/01/27 05:45:13;;;;;;;93.75;25.15;;;;;;;4.20;100.00;102111.28;4999400;28;20053;-80
2022/01/27 05:47:38;;;;;;;108.90;26.42;;;;;;;4.24;100.00;102102.09;4995465;28;20049;-82
2022/01/27 05:50:05;;;;;;;95.13;25.48;;;;;;;4.18;100.00;102091.44;5003531;28;20115;-82
2022/01/27 05:52:31;;;;;;;82.10;24.80;;;;;;;4.20;100.00;102095.91;4992347;28;20038;-79
2022/01/27 05:54:57;;;;;;;104.90;25.85;;;;;;;4.28;100.00;102089.31;4989718;28;20049;-80
2022/01/27 05:57:22;;;;;;;96.30;25.73;;;;;;;4.19;100.00;102076.97;5003651;28;20057;-81
2022/01/27 05:59:48;;;;;;;106.05;27.10;;;;;;;4.23;100.00;102081.34;5009941;28;20482;-81
2022/01/27 06:02:14;;;;;;;98.10;25.75;;;;;;;4.32;100.00;102072.91;4998889;28;20482;-81
2022/01/27 06:04:39;;;;;;;100.70;27.08;;;;;;;4.37;100.00;102073.66;5003052;28;20034;-80
2022/01/27 06:07:05;;;;;;;95.60;27.05;;;;;;;4.33;100.00;102072.00;4989894;28;20070;-80
2022/01/27 06:09:30;;;;;;;102.93;26.67;;;;;;;4.45;100.00;102086.97;4994411;28;20084;-80
2022/01/27 06:11:55;;;;;;;91.40;25.17;;;;;;;4.41;100.00;102086.19;5003991;28;20056;-80
2022/01/27 06:14:21;;;;;;;106.22;27.85;;;;;;;4.37;100.00;102080.91;4989107;28;20041;-80
2022/01/27 06:16:47;;;;;;;87.15;22.77;;;;;;;4.47;100.00;102079.66;4991592;28;20486;-80
2022/01/27 06:19:13;;;;;;;107.97;26.88;;;;;;;4.53;100.00;102079.44;4990958;28;20041;-80
2022/01/27 06:21:40;;;;;;;105.47;27.02;;;;;;;4.51;100.00;102081.34;4999201;28;20034;-80
2022/01/27 06:24:06;;;;;;;84.93;22.90;;;;;;;4.53;100.00;102065.00;5004603;28;20043;-80
2022/01/27 06:26:31;;;;;;;75.53;21.63;;;;;;;4.68;100.00;102066.31;5008393;28;20041;-79
2022/01/27 06:28:58;;;;;;;106.55;27.33;;;;;;;4.66;100.00;102079.91;5005061;28;20409;-79
2022/01/27 06:31:24;;;;;;;94.55;24.90;;;;;;;4.66;100.00;102071.78;4995342;28;20026;-80
2022/01/27 06:33:49;;;;;;;98.85;26.48;;;;;;;4.65;100.00;102074.53;4980792;28;20087;-82
2022/01/27 06:36:15;;;;;;;98.05;25.33;;;;;;;4.83;100.00;102078.44;4992806;28;20026;-81
2022/01/27 06:38:40;;;;;;;95.15;26.73;;;;;;;4.70;100.00;102072.56;5007444;28;20057;-80
2022/01/27 06:41:07;;;;;;;103.10;26.58;;;;;;;4.70;100.00;102080.69;5002873;28;20026;-81
2022/01/27 06:43:32;;;;;;;96.43;25.10;;;;;;;4.71;100.00;102071.63;5006532;28;22061;-81
2022/01/27 06:45:58;;;;;;;106.75;27.10;;;;;;;4.84;100.00;102070.25;4991365;28;20047;-81
2022/01/27 06:48:24;;;;;;;121.47;29.83;;;;;;;4.69;100.00;102068.97;4980042;28;20045;-81
2022/01/27 06:50:54;;;;;;;119.50;29.60;;;;;;;4.71;100.00;102066.19;5010978;28;20034;-80
2022/01/27 06:53:20;;;;;;;100.63;27.23;;;;;;;4.86;100.00;102073.78;4987980;28;20062;-80
2022/01/27 06:55:46;;;;;;;87.93;25.20;;;;;;;4.71;100.00;102056.22;5009662;28;20030;-79
2022/01/27 06:58:12;;;;;;;106.00;25.90;;;;;;;4.76;100.00;102043.38;4993212;28;20035;-79
2022/01/27 07:00:37;;;;;;;120.30;28.83;;;;;;;4.83;100.00;102037.75;4979846;28;20026;-81
2022/01/27 07:03:04;;;;;;;117.97;30.52;;;;;;;4.73;100.00;102035.34;4998855;28;20066;-79
2022/01/27 07:05:32;;;;;;;115.85;29.17;;;;;;;4.78;100.00;102032.47;5009040;28;20072;-79
2022/01/27 07:07:58;;;;;;;124.28;30.65;;;;;;;4.80;100.00;102022.44;4999812;28;20537;-80
2022/01/27 07:10:23;;;;;;;110.53;27.45;;;;;;;4.88;100.00;102036.63;4994091;28;20062;-81
2022/01/27 07:12:50;;;;;;;104.90;27.10;;;;;;;4.94;100.00;102038.25;5005612;28;20031;-80
2022/01/27 07:15:16;;;;;;;113.60;28.42;;;;;;;4.96;100.00;102039.06;4978007;28;20039;-80
2022/01/27 07:17:41;;;;;;;108.50;28.75;;;;;;;4.93;100.00;102023.75;5005166;28;20031;-79
2022/01/27 07:20:08;;;;;;;134.52;31.08;;;;;;;4.91;100.00;102044.66;4998845;28;20062;-79
2022/01/27 07:22:35;;;;;;;117.00;29.98;;;;;;;4.98;100.00;102031.75;5001166;28;20108;-81
2022/01/27 07:25:04;;;;;;;110.20;27.42;;;;;;;5.01;100.00;102039.78;4984380;28;20474;-79
2022/01/27 07:27:33;;;;;;;108.13;26.75;;;;;;;5.07;100.00;102041.41;5033785;28;20037;-79
2022/01/27 07:30:01;;;;;;;112.45;28.38;;;;;;;5.08;100.00;102048.56;5009025;28;20054;-79
2022/01/27 07:32:26;;;;;;;109.38;28.17;;;;;;;5.04;100.00;102049.66;5004678;28;20074;-79
2022/01/27 07:34:52;;;;;;;113.22;30.67;;;;;;;5.08;100.00;102043.16;5007136;28;20045;-80
2022/01/27 07:37:18;;;;;;;108.63;28.92;;;;;;;5.06;100.00;102054.06;5033546;28;20030;-81
2022/01/27 07:39:43;;;;;;;127.07;30.25;;;;;;;5.10;100.00;102050.31;5038991;28;20033;-80
2022/01/27 07:42:09;;;;;;;107.70;27.27;;;;;;;5.11;100.00;102037.59;4997134;28;20056;-80
2022/01/27 07:44:35;;;;;;;112.43;27.75;;;;;;;5.19;100.00;102051.78;5008150;28;20133;-81
2022/01/27 07:47:01;;;;;;;113.13;30.33;;;;;;;5.13;100.00;102041.13;5017757;28;20116;-79
2022/01/27 07:49:28;;;;;;;132.25;30.45;;;;;;;5.12;100.00;102039.38;4987413;28;20094;-80
2022/01/27 07:51:54;;;;;;;123.45;31.25;;;;;;;5.36;100.00;102045.69;5005483;28;20501;-82
2022/01/27 07:54:20;;;;;;;117.25;30.48;;;;;;;5.14;100.00;102051.06;5010605;28;20042;-81
2022/01/27 07:56:45;;;;;;;117.95;30.92;;;;;;;5.20;100.00;102040.00;4998713;28;20029;-81
2022/01/27 07:59:10;;;;;;;102.43;27.80;;;;;;;5.30;100.00;102046.84;5009368;28;20030;-81
2022/01/27 08:01:36;;;;;;;122.32;33.25;;;;;;;5.29;100.00;102045.06;5005178;28;20030;-79
2022/01/27 08:04:01;;;;;;;125.35;31.83;;;;;;;5.43;100.00;102054.53;5005270;28;20034;-81
2022/01/27 08:06:27;;;;;;;120.03;29.77;;;;;;;5.32;100.00;102049.50;5004754;28;20061;-81
2022/01/27 08:08:52;;;;;;;131.27;31.50;;;;;;;5.27;100.00;102051.50;5034932;28;20062;-81
2022/01/27 08:11:19;;;;;;;130.18;32.85;;;;;;;5.22;100.00;102051.66;5007121;28;20633;-79
2022/01/27 08:13:45;;;;;;;121.10;31.52;;;;;;;5.23;100.00;102063.41;4992379;28;20417;-80
2022/01/27 08:16:10;;;;;;;127.18;34.05;;;;;;;5.22;100.00;102062.53;4995359;28;20034;-81
2022/01/27 08:18:36;;;;;;;126.35;33.15;;;;;;;5.28;100.00;102056.88;5001122;28;20053;-81
2022/01/27 08:21:02;;;;;;;132.30;33.08;;;;;;;5.23;100.00;102055.25;4998900;28;20033;-81
2022/01/27 08:23:28;;;;;;;119.20;31.75;;;;;;;5.15;100.00;102061.00;5005033;28;20038;-81
2022/01/27 08:26:03;;;;;;;130.90;33.00;;;;;;;5.08;100.00;102054.00;4996120;28;20500;-81
2022/01/27 08:28:36;;;;;;;142.20;35.45;;;;;;;5.17;100.00;102042.81;4986907;28;20031;-80
2022/01/27 08:31:03;;;;;;;141.90;35.63;;;;;;;5.08;100.00;102048.56;5002027;28;20045;-80
2022/01/27 08:33:30;;;;;;;165.60;39.53;;;;;;;5.02;100.00;102059.66;5007941;28;20285;-80
2022/01/27 08:35:58;;;;;;;152.30;35.20;;;;;;;4.95;100.00;102056.28;4987506;28;20023;-80
2022/01/27 08:38:27;;;;;;;150.68;35.28;;;;;;;5.00;100.00;102042.53;5003904;28;20097;-80
2022/01/27 08:40:53;;;;;;;154.60;37.53;;;;;;;5.04;100.00;102053.25;5034295;28;20050;-80
2022/01/27 08:43:18;;;;;;;121.20;33.88;;;;;;;5.00;100.00;102048.88;5000618;28;20085;-80
2022/01/27 08:45:46;;;;;;;175.70;39.67;;;;;;;4.97;100.00;102054.41;4998890;28;20054;-79
2022/01/27 08:48:17;;;;;;;147.93;36.72;;;;;;;4.99;100.00;102048.94;4999660;28;20465;-79
2022/01/27 08:50:49;;;;;;;159.77;39.25;;;;;;;5.02;100.00;102056.94;4999305;28;20053;-79
2022/01/27 08:53:14;;;;;;;146.67;37.53;;;;;;;4.96;100.00;102045.38;4999463;28;20042;-80
2022/01/27 08:55:40;;;;;;;150.02;40.00;;;;;;;4.97;100.00;102055.28;5003686;28;20301;-80
2022/01/27 08:58:05;;;;;;;156.48;38.95;;;;;;;4.93;100.00;102053.63;4998274;28;20046;-80
2022/01/27 09:00:31;;;;;;;163.70;39.10;;;;;;;4.95;100.00;102051.75;4981066;28;20406;-80
2022/01/27 09:02:57;;;;;;;185.77;42.75;;;;;;;4.93;100.00;102055.44;4981235;28;20035;-79
2022/01/27 09:05:22;;;;;;;184.55;43.67;;;;;;;4.95;100.00;102056.28;4996894;28;20552;-80
2022/01/27 09:07:48;;;;;;;170.07;42.55;;;;;;;4.95;100.00;102053.56;5001091;28;20031;-80
2022/01/27 09:10:15;;;;;;;156.50;40.70;;;;;;;4.98;100.00;102053.44;4996848;28;20041;-79
2022/01/27 09:12:41;;;;;;;135.77;36.85;;;;;;;5.08;100.00;102043.16;4997775;28;20042;-80
2022/01/27 09:15:06;;;;;;;153.77;38.85;;;;;;;5.08;100.00;102045.84;4996711;28;20030;-79
2022/01/27 09:17:39;;;;;;;163.70;42.20;;;;;;;5.07;100.00;102044.09;4981067;28;20694;-79
2022/01/27 09:20:05;;;;;;;159.88;39.97;;;;;;;5.12;100.00;102045.69;4981017;28;20129;-79
2022/01/27 09:22:31;;;;;;;146.98;37.33;;;;;;;5.13;100.00;102039.34;4997769;28;20041;-80
2022/01/27 09:25:07;;;;;;;179.07;41.88;;;;;;;5.13;100.00;102043.84;4996715;28;20029;-79
2022/01/27 09:27:33;;;;;;;168.95;42.75;;;;;;;5.13;100.00;102038.44;5000899;28;20474;-80
2022/01/27 09:29:58;;;;;;;160.13;41.33;;;;;;;5.18;100.00;102047.28;4996371;28;20026;-79
2022/01/27 09:32:26;;;;;;;144.95;38.50;;;;;;;5.23;100.00;102039.88;4996131;28;20462;-81
2022/01/27 09:34:52;;;;;;;162.82;42.22;;;;;;;5.17;100.00;102042.81;4981551;28;20041;-81
2022/01/27 09:37:18;;;;;;;170.73;41.40;;;;;;;5.14;100.00;102037.50;4986762;28;20490;-78
2022/01/27 09:39:44;;;;;;;171.07;41.20;;;;;;;5.20;100.00;102048.13;4997404;28;20092;-79
2022/01/27 09:42:10;;;;;;;178.35;44.80;;;;;;;5.28;100.00;102039.69;4985540;28;20042;-81
2022/01/27 09:44:37;;;;;;;174.85;43.88;;;;;;;5.34;100.00;102053.94;4995446;28;20047;-79
2022/01/27 09:47:10;;;;;;;167.18;42.08;;;;;;;5.23;100.00;102045.31;4996173;28;20042;-79
2022/01/27 09:49:40;;;;;;;168.07;43.38;;;;;;;5.26;100.00;102047.00;5010561;28;20354;-79
2022/01/27 09:52:06;;;;;;;177.23;42.13;;;;;;;5.27;100.00;102041.50;4997082;28;20037;-79
2022/01/27 09:54:32;;;;;;;166.75;44.10;;;;;;;5.29;100.00;102049.59;4982467;28;20386;-78
2022/01/27 09:56:58;;;;;;;165.23;41.47;;;;;;;5.31;100.00;102053.16;4995737;28;20030;-79
2022/01/27 09:59:23;;;;;;;159.13;41.90;;;;;;;5.34;100.00;102053.94;4997148;28;20062;-79
2022/01/27 10:02:00;;;;;;;166.68;44.67;;;;;;;5.36;100.00;102051.13;5012085;28;20034;-79
2022/01/27 10:04:49;;;;;;;155.95;41.17;;;;;;;5.32;100.00;102055.81;4995627;28;20045;-79
2022/01/27 10:07:21;;;;;;;149.25;39.63;;;;;;;5.38;100.00;102052.00;4995245;28;20038;-79
2022/01/27 10:10:04;;;;;;;140.48;36.70;;;;;;;5.39;100.00;102058.28;4996156;28;20359;-79
2022/01/27 10:12:35;;;;;;;144.98;39.20;;;;;;;5.44;100.00;102056.28;4979038;28;20089;-80
2022/01/27 10:15:10;;;;;;;153.48;40.92;;;;;;;5.44;100.00;102064.44;4987797;28;20057;-79
2022/01/27 10:17:38;;;;;;;145.18;38.45;;;;;;;5.47;100.00;102064.31;5011924;28;20039;-78
2022/01/27 10:20:17;;;;;;;145.70;39.78;;;;;;;5.45;100.00;102066.22;4997266;28;20088;-80
2022/01/27 10:23:23;;;;;;;129.25;35.72;;;;;;;5.49;100.00;102057.91;5002758;28;20061;-79
2022/01/27 10:25:55;;;;;;;145.00;37.17;;;;;;;5.45;100.00;102058.06;4992925;28;20043;-79
2022/01/27 10:31:24;;;;;;;117.50;34.30;;;;;;;5.59;100.00;102044.84;4994848;28;20474;-80
2022/01/27 10:33:55;;;;;;;130.30;36.08;;;;;;;5.57;100.00;102048.56;4999749;28;20037;-81
2022/01/27 10:36:22;;;;;;;122.20;33.15;;;;;;;5.62;100.00;102061.00;4998249;28;20038;-80
2022/01/27 10:38:53;;;;;;;120.63;35.58;;;;;;;5.62;100.00;102054.69;4978861;28;20030;-79
2022/01/27 10:41:20;;;;;;;104.03;28.98;;;;;;;5.69;100.00;102050.81;5002096;28;20109;-81
2022/01/27 10:43:46;;;;;;;105.95;33.80;;;;;;;5.65;100.00;102043.72;5012415;28;20122;-79
2022/01/27 10:46:29;;;;;;;123.85;35.75;;;;;;;5.65;100.00;102047.28;4996130;28;20050;-80
2022/01/27 10:49:06;;;;;;;;;;;;;;;5.66;100.00;102050.91;5020570;28;20053;-79
2022/01/27 10:51:50;;;;;;;117.60;31.73;;;;;;;5.71;100.00;102049.78;4992371;28;19914;-79
2022/01/27 10:54:33;;;;;;;93.15;26.48;;;;;;;5.75;100.00;102044.22;5003023;28;20030;-80
2022/01/27 10:57:01;;;;;;;110.45;30.88;;;;;;;5.74;100.00;102048.78;5011766;28;20455;-80
2022/01/27 10:59:32;;;;;;;108.72;33.33;;;;;;;5.77;100.00;102045.94;4991687;28;20026;-79
2022/01/27 11:01:58;;;;;;;111.30;30.05;;;;;;;5.77;100.00;102047.75;5003872;28;20537;-80
2022/01/27 11:04:33;;;;;;;100.78;29.45;;;;;;;5.75;100.00;102047.81;5020608;28;20026;-79
2022/01/27 11:07:02;;;;;;;109.93;32.35;;;;;;;5.75;100.00;102049.66;4999183;28;20381;-80
2022/01/27 11:09:33;;;;;;;104.88;30.05;;;;;;;5.77;100.00;102051.38;5030084;28;20042;-79
2022/01/27 11:11:59;;;;;;;105.53;30.73;;;;;;;5.71;100.00;102035.31;5022201;28;20109;-80
2022/01/27 11:14:25;;;;;;;102.43;30.83;;;;;;;5.78;100.00;102036.84;4994581;28;20041;-79
2022/01/27 11:16:56;;;;;;;96.43;29.95;;;;;;;5.86;100.00;102044.69;5005215;28;20048;-80
2022/01/27 11:19:42;;;;;;;81.22;26.27;;;;;;;5.89;100.00;102036.41;4980409;28;20030;-79
2022/01/27 11:22:26;;;;;;;83.05;26.92;;;;;;;5.97;100.00;102033.41;5028605;28;20069;-79
2022/01/27 11:27:38;;;;;;;92.07;27.27;;;;;;;6.04;100.00;102019.50;4995188;28;20058;-80
2022/01/27 11:30:28;;;;;;;74.03;24.05;;;;;;;6.05;100.00;102026.72;4994287;28;20072;-80
2022/01/27 11:32:59;;;;;;;89.53;28.85;;;;;;;6.11;100.00;102024.69;4996043;28;20061;-80
2022/01/27 11:35:26;;;;;;;94.43;29.25;;;;;;;6.04;100.00;102013.19;4988952;28;20528;-81
2022/01/27 11:37:53;;;;;;;80.40;27.00;;;;;;;6.10;100.00;102012.03;5003186;28;20042;-80
2022/01/27 11:40:32;;;;;;;92.30;30.95;;;;;;;6.10;100.00;102007.50;4977639;28;20121;-83
2022/01/27 11:42:58;;;;;;;86.32;29.77;;;;;;;6.10;100.00;102006.59;4999003;28;20053;-80
2022/01/27 11:45:23;;;;;;;87.22;28.10;;;;;;;6.29;100.00;102001.28;4990350;28;20047;-80
2022/01/27 11:47:51;;;;;;;99.95;30.73;;;;;;;6.13;100.00;101985.59;4993655;28;20056;-79
2022/01/27 11:50:35;;;;;;;91.00;28.10;;;;;;;6.17;100.00;101989.09;5017187;28;20022;-80
2022/01/27 11:53:14;;;;;;;109.47;33.10;;;;;;;6.16;100.00;101990.03;4996163;28;20034;-78